createdAt,value
2023-02-21T00:00:26.273Z,11.99
2023-02-21T00:03:46.851Z,12.38
2023-02-21T00:07:07.312Z,12.00
2023-02-21T00:10:28.193Z,12.51
2023-02-21T00:13:48.700Z,12.22
2023-02-21T00:17:09.081Z,11.82
2023-02-21T00:20:29.393Z,12.58
2023-02-21T00:23:53.229Z,12.58
2023-02-21T00:27:13.714Z,12.34
2023-02-21T00:30:34.750Z,12.12
2023-02-21T00:33:56.108Z,12.54
2023-02-21T00:37:16.569Z,12.63
2023-02-21T00:40:37.426Z,12.00
2023-02-21T00:43:57.770Z,12.48
2023-02-21T00:47:18.122Z,11.83
2023-02-21T00:50:38.553Z,12.29
2023-02-21T00:53:58.936Z,11.86
2023-02-21T00:57:19.352Z,12.12
2023-02-21T01:00:41.854Z,12.10
2023-02-21T01:04:02.331Z,11.50
2023-02-21T01:07:22.981Z,11.86
2023-02-21T01:10:43.755Z,11.70
2023-02-21T01:14:04.169Z,11.21
2023-02-21T01:17:24.620Z,11.78
2023-02-21T01:20:45.085Z,12.23
2023-02-21T01:24:05.640Z,11.37
2023-02-21T01:27:26.011Z,12.00
2023-02-21T01:30:46.445Z,11.69
2023-02-21T01:34:06.859Z,11.78
2023-02-21T01:37:27.466Z,11.50
2023-02-21T01:40:48.192Z,12.01
2023-02-21T01:44:19.376Z,11.94
2023-02-21T01:47:39.792Z,11.25
2023-02-21T01:51:00.229Z,11.17
2023-02-21T01:54:20.842Z,11.39
2023-02-21T01:57:41.205Z,11.68
2023-02-21T02:01:01.857Z,10.80
2023-02-21T02:04:22.530Z,10.78
2023-02-21T02:07:42.895Z,11.10
2023-02-21T02:11:03.416Z,11.33
2023-02-21T02:14:11.281Z,10.85
2023-02-21T02:17:32.014Z,10.72
2023-02-21T02:20:52.872Z,11.47
2023-02-21T02:23:54.733Z,11.41
2023-02-21T02:27:16.989Z,11.58
2023-02-21T02:30:28.488Z,12.16
2023-02-21T02:33:33.359Z,12.43
2023-02-21T02:36:44.833Z,12.32
2023-02-21T02:39:48.710Z,11.96
2023-02-21T02:43:02.800Z,12.23
2023-02-21T02:46:06.004Z,11.89
2023-02-21T02:49:34.152Z,12.23
2023-02-21T02:52:36.922Z,11.68
2023-02-21T02:55:52.432Z,11.78
2023-02-21T02:58:55.229Z,10.94
2023-02-21T03:01:57.410Z,11.60
2023-02-21T03:05:03.535Z,10.96
2023-02-21T03:08:10.319Z,11.96
2023-02-21T03:11:19.150Z,11.06
2023-02-21T03:14:21.139Z,10.88
2023-02-21T03:17:23.643Z,11.31
2023-02-21T03:20:25.505Z,11.50
2023-02-21T03:23:28.505Z,11.63
2023-02-21T03:26:30.907Z,11.66
2023-02-21T03:29:34.057Z,11.21
2023-02-21T03:32:40.313Z,11.62
2023-02-21T03:35:42.772Z,11.60
2023-02-21T03:38:44.901Z,11.45
2023-02-21T03:41:46.752Z,11.97
2023-02-21T03:44:48.694Z,12.07
2023-02-21T03:47:50.594Z,11.66
2023-02-21T03:50:52.457Z,11.37
2023-02-21T03:53:54.443Z,11.84
2023-02-21T03:56:56.374Z,11.60
2023-02-21T03:59:58.631Z,11.17
2023-02-21T04:03:00.544Z,11.60
2023-02-21T04:06:04.126Z,11.36
2023-02-21T04:09:05.981Z,11.46
2023-02-21T04:12:07.916Z,11.86
2023-02-21T04:15:10.810Z,11.87
2023-02-21T04:18:12.744Z,11.71
2023-02-21T04:21:18.394Z,11.59
2023-02-21T04:24:20.469Z,11.71
2023-02-21T04:27:22.331Z,11.94
2023-02-21T04:30:24.975Z,11.57
2023-02-21T04:33:26.908Z,11.73
2023-02-21T04:36:28.811Z,11.33
2023-02-21T04:39:30.745Z,11.46
2023-02-21T04:42:32.953Z,11.34
2023-02-21T04:45:35.177Z,11.10
2023-02-21T04:48:37.055Z,11.63
2023-02-21T04:51:39.077Z,11.41
2023-02-21T04:54:40.863Z,11.66
2023-02-21T04:57:42.912Z,11.29
2023-02-21T05:00:44.994Z,11.11
2023-02-21T05:03:47.401Z,11.95
2023-02-21T05:06:49.214Z,11.73
2023-02-21T05:09:51.492Z,11.41
2023-02-21T05:12:53.479Z,11.15
2023-02-21T05:15:55.361Z,11.32
2023-02-21T05:18:57.202Z,11.15
2023-02-21T05:22:00.031Z,11.45
2023-02-21T05:25:01.886Z,11.55
2023-02-21T05:28:03.703Z,12.28
2023-02-21T05:31:06.052Z,11.71
2023-02-21T05:34:07.937Z,11.44
2023-02-21T05:37:21.351Z,12.14
2023-02-21T05:40:23.345Z,11.35
2023-02-21T05:43:26.924Z,12.00
2023-02-21T05:46:30.866Z,11.55
2023-02-21T05:49:32.997Z,11.25
2023-02-21T05:52:34.806Z,11.65
2023-02-21T05:55:36.889Z,12.04
2023-02-21T05:58:38.962Z,11.92
2023-02-21T06:01:40.870Z,11.92
2023-02-21T06:04:42.815Z,12.55
2023-02-21T06:07:44.849Z,12.01
2023-02-21T06:10:48.371Z,12.24
2023-02-21T06:13:51.201Z,11.92
2023-02-21T06:16:53.338Z,11.90
2023-02-21T06:19:58.402Z,12.40
2023-02-21T06:23:00.368Z,12.60
2023-02-21T06:26:02.302Z,12.79
2023-02-21T06:29:05.033Z,12.70
2023-02-21T06:32:06.940Z,13.35
2023-02-21T06:35:09.056Z,13.74
2023-02-21T06:38:11.092Z,13.98
2023-02-21T06:41:15.477Z,14.20
2023-02-21T06:44:17.643Z,14.73
2023-02-21T06:47:19.855Z,15.14
2023-02-21T06:50:21.787Z,15.37
2023-02-21T06:53:24.041Z,15.81
2023-02-21T06:56:25.962Z,15.98
2023-02-21T06:59:28.535Z,16.14
2023-02-21T07:02:30.678Z,17.21
2023-02-21T07:05:37.684Z,17.60
2023-02-21T07:08:39.612Z,16.62
2023-02-21T07:11:41.606Z,17.99
2023-02-21T07:14:43.714Z,17.58
2023-02-21T07:17:45.563Z,16.96
2023-02-21T07:20:48.033Z,16.18
2023-02-21T07:23:50.050Z,15.05
2023-02-21T07:26:52.048Z,15.35
2023-02-21T07:29:53.996Z,15.76
2023-02-21T07:32:56.077Z,15.80
2023-02-21T07:35:58.149Z,16.37
2023-02-21T07:39:00.116Z,16.33
2023-02-21T07:42:02.016Z,17.17
2023-02-21T07:45:04.173Z,17.30
2023-02-21T07:48:06.219Z,16.54
2023-02-21T07:51:09.158Z,16.08
2023-02-21T07:54:11.486Z,14.70
2023-02-21T07:57:13.458Z,15.00
2023-02-21T08:00:15.558Z,13.56
2023-02-21T08:03:18.001Z,13.68
2023-02-21T08:06:19.966Z,13.43
2023-02-21T08:09:22.881Z,12.92
2023-02-21T08:12:24.937Z,13.45
2023-02-21T08:15:26.925Z,12.79
2023-02-21T08:18:28.892Z,13.15
2023-02-21T08:21:30.885Z,12.99
2023-02-21T08:24:32.963Z,13.30
2023-02-21T08:27:34.870Z,13.80
2023-02-21T08:30:36.885Z,13.41
2023-02-21T08:33:38.949Z,13.37
2023-02-21T08:36:42.195Z,13.53
2023-02-21T08:39:47.555Z,13.37
2023-02-21T08:42:51.040Z,13.54
2023-02-21T08:45:55.145Z,13.86
2023-02-21T08:48:57.250Z,13.81
2023-02-21T08:51:59.239Z,13.73
2023-02-21T08:55:01.622Z,14.46
2023-02-21T08:58:04.118Z,14.23
2023-02-21T09:01:06.396Z,13.91
2023-02-21T09:04:08.402Z,14.01
2023-02-21T09:07:12.116Z,13.93
2023-02-21T09:10:14.758Z,13.66
2023-02-21T09:13:17.326Z,13.72
2023-02-21T09:16:19.469Z,13.57
2023-02-21T09:19:22.373Z,13.94
2023-02-21T09:22:24.397Z,13.17
2023-02-21T09:25:26.408Z,13.14
2023-02-21T09:28:29.483Z,13.76
2023-02-21T09:31:31.516Z,13.97
2023-02-21T09:34:33.675Z,14.13
2023-02-21T09:37:39.386Z,13.58
2023-02-21T09:40:51.948Z,13.63
2023-02-21T09:43:53.908Z,13.94
2023-02-21T09:47:00.686Z,13.99
2023-02-21T09:50:07.330Z,14.74
2023-02-21T09:53:09.505Z,14.40
2023-02-21T09:56:19.038Z,13.66
2023-02-21T09:59:20.987Z,13.94
2023-02-21T10:02:41.856Z,14.31
2023-02-21T10:05:44.900Z,14.14
2023-02-21T10:08:46.986Z,14.60
2023-02-21T10:12:04.359Z,14.57
2023-02-21T10:15:44.295Z,14.23
2023-02-21T10:18:49.123Z,14.28
2023-02-21T10:21:51.357Z,14.12
2023-02-21T10:24:53.444Z,14.49
2023-02-21T10:27:55.671Z,14.82
2023-02-21T10:30:59.028Z,14.77
2023-02-21T10:34:01.272Z,14.90
2023-02-21T10:37:20.981Z,16.11
2023-02-21T10:40:22.897Z,16.53
2023-02-21T10:43:31.483Z,17.85
2023-02-21T10:46:36.931Z,18.23
2023-02-21T10:49:50.780Z,18.67
2023-02-21T10:52:52.713Z,19.46
2023-02-21T10:56:13.559Z,19.63
2023-02-21T10:59:22.496Z,19.27
2023-02-21T11:02:24.522Z,20.49
2023-02-21T11:05:27.138Z,18.09
2023-02-21T11:08:39.618Z,20.61
2023-02-21T11:11:42.043Z,21.00
2023-02-21T11:14:45.425Z,20.17
2023-02-21T11:17:47.950Z,19.36
2023-02-21T11:20:50.365Z,19.99
2023-02-21T11:24:02.761Z,20.75
2023-02-21T11:27:04.637Z,19.54
2023-02-21T11:30:21.061Z,19.64
2023-02-21T11:33:23.261Z,21.40
2023-02-21T11:36:29.610Z,22.37
2023-02-21T11:39:34.318Z,22.12
2023-02-21T11:42:36.208Z,18.57
2023-02-21T11:45:38.960Z,18.00
2023-02-21T11:48:46.977Z,18.63
2023-02-21T11:51:50.375Z,18.70
2023-02-21T11:54:52.502Z,17.38
2023-02-21T11:58:03.770Z,17.11
2023-02-21T12:01:07.880Z,17.04
2023-02-21T12:04:10.717Z,18.78
2023-02-21T12:07:17.738Z,19.68
2023-02-21T12:10:19.729Z,19.73
2023-02-21T12:13:22.797Z,19.75
2023-02-21T12:16:37.014Z,19.10
2023-02-21T12:19:45.145Z,17.09
2023-02-21T12:22:47.013Z,16.68
2023-02-21T12:25:52.325Z,16.98
2023-02-21T12:28:59.761Z,17.49
2023-02-21T12:32:08.120Z,17.82
2023-02-21T12:35:27.756Z,17.31
2023-02-21T12:38:48.738Z,18.36
2023-02-21T12:42:13.747Z,18.27
2023-02-21T12:45:38.664Z,18.02
2023-02-21T12:48:46.147Z,19.53
2023-02-21T12:52:07.035Z,20.98
2023-02-21T12:55:25.159Z,20.96
2023-02-21T12:58:42.368Z,19.30
2023-02-21T13:01:47.626Z,20.21
2023-02-21T13:04:54.276Z,20.33
2023-02-21T13:07:57.881Z,18.86
2023-02-21T13:10:59.870Z,19.97
2023-02-21T13:14:01.953Z,21.21
2023-02-21T13:17:04.176Z,22.00
2023-02-21T13:20:07.593Z,19.56
2023-02-21T13:23:09.819Z,19.82
2023-02-21T13:26:29.871Z,20.09
2023-02-21T13:29:32.499Z,20.81
2023-02-21T13:32:37.784Z,20.61
2023-02-21T13:35:39.777Z,23.35
2023-02-21T13:38:41.677Z,21.03
2023-02-21T13:41:44.914Z,23.76
2023-02-21T13:44:51.270Z,23.27
2023-02-21T13:47:53.217Z,23.61
2023-02-21T13:50:56.470Z,22.43
2023-02-21T13:54:10.330Z,23.33
2023-02-21T13:57:29.850Z,22.02
2023-02-21T14:00:31.688Z,20.74
2023-02-21T14:03:34.176Z,22.85
2023-02-21T14:06:36.664Z,21.20
2023-02-21T14:09:39.499Z,20.66
2023-02-21T14:12:44.206Z,19.99
2023-02-21T14:15:46.839Z,20.61
2023-02-21T14:18:49.128Z,19.63
2023-02-21T14:22:11.310Z,18.72
2023-02-21T14:25:24.406Z,19.72
2023-02-21T14:28:45.182Z,18.58
2023-02-21T14:31:51.140Z,17.05
2023-02-21T14:34:57.326Z,17.24
2023-02-21T14:37:59.553Z,17.19
2023-02-21T14:41:08.940Z,17.19
2023-02-21T14:44:21.252Z,16.49
2023-02-21T14:47:49.941Z,15.75
2023-02-21T14:51:01.293Z,16.41
2023-02-21T14:54:22.385Z,16.24
2023-02-21T14:57:24.428Z,16.10
2023-02-21T15:00:35.941Z,16.35
2023-02-21T15:03:48.763Z,15.76
2023-02-21T15:07:09.624Z,15.75
2023-02-21T15:10:11.628Z,15.50
2023-02-21T15:13:33.343Z,15.14
2023-02-21T15:16:35.301Z,15.54
2023-02-21T15:19:37.268Z,14.74
2023-02-21T15:22:39.466Z,15.61
2023-02-21T15:25:44.993Z,14.77
2023-02-21T15:28:47.197Z,15.02
2023-02-21T15:31:50.635Z,14.48
2023-02-21T15:34:52.933Z,14.47
2023-02-21T15:37:54.892Z,13.99
2023-02-21T15:40:58.600Z,14.31
2023-02-21T15:44:08.461Z,14.73
2023-02-21T15:47:10.352Z,14.87
2023-02-21T15:50:20.485Z,15.72
2023-02-21T15:53:23.828Z,15.32
2023-02-21T15:56:28.533Z,15.49
2023-02-21T15:59:31.516Z,15.27
2023-02-21T16:02:33.820Z,15.42
2023-02-21T16:05:36.272Z,15.33
2023-02-21T16:08:39.150Z,15.09
2023-02-21T16:12:14.392Z,14.62
2023-02-21T16:15:19.207Z,15.12
2023-02-21T16:18:21.180Z,15.19
2023-02-21T16:21:25.165Z,15.45
2023-02-21T16:24:28.909Z,15.51
2023-02-21T16:27:30.842Z,15.40
2023-02-21T16:30:35.581Z,15.07
2023-02-21T16:33:37.527Z,14.88
2023-02-21T16:36:41.025Z,14.44
2023-02-21T16:39:43.768Z,14.64
2023-02-21T16:42:45.858Z,14.90
2023-02-21T16:45:48.606Z,15.07
2023-02-21T16:48:50.513Z,15.32
2023-02-21T16:51:52.425Z,15.51
2023-02-21T16:54:54.442Z,14.60
2023-02-21T16:57:57.516Z,15.21
2023-02-21T17:01:03.819Z,15.34
2023-02-21T17:04:06.991Z,14.93
2023-02-21T17:07:11.050Z,15.42
2023-02-21T17:10:13.061Z,14.78
2023-02-21T17:13:15.120Z,14.73
2023-02-21T17:16:17.348Z,15.12
2023-02-21T17:19:21.191Z,15.09
2023-02-21T17:22:23.082Z,15.17
2023-02-21T17:25:25.140Z,14.96
2023-02-21T17:28:27.022Z,15.69
2023-02-21T17:31:28.951Z,15.24
2023-02-21T17:34:30.883Z,14.75
2023-02-21T17:37:32.774Z,15.34
2023-02-21T17:40:34.684Z,15.32
2023-02-21T17:43:36.568Z,15.61
2023-02-21T17:46:38.495Z,14.57
2023-02-21T17:49:40.452Z,14.47
2023-02-21T17:52:42.567Z,14.94
2023-02-21T17:55:44.545Z,15.42
2023-02-21T17:58:46.799Z,15.30
2023-02-21T18:01:48.774Z,15.91
2023-02-21T18:04:51.489Z,15.58
2023-02-21T18:07:53.718Z,15.65
2023-02-21T18:10:55.731Z,15.56
2023-02-21T18:13:57.659Z,15.80
2023-02-21T18:16:59.611Z,15.95
2023-02-21T18:20:01.657Z,16.22
2023-02-21T18:23:06.471Z,15.32
2023-02-21T18:26:08.368Z,15.68
2023-02-21T18:29:10.222Z,15.74
2023-02-21T18:32:12.218Z,15.73
2023-02-21T18:35:17.069Z,14.89
2023-02-21T18:38:19.112Z,15.41
2023-02-21T18:41:22.814Z,15.25
2023-02-21T18:44:24.776Z,14.46
2023-02-21T18:47:27.089Z,15.33
2023-02-21T18:50:29.076Z,15.14
2023-02-21T18:53:31.146Z,14.98
2023-02-21T18:56:33.021Z,14.94
2023-02-21T18:59:35.093Z,14.80
2023-02-21T19:02:37.100Z,14.52
2023-02-21T19:05:39.230Z,14.59
2023-02-21T19:08:41.153Z,14.34
2023-02-21T19:11:43.150Z,14.26
2023-02-21T19:14:45.086Z,14.99
2023-02-21T19:17:48.054Z,15.13
2023-02-21T19:20:50.198Z,14.55
2023-02-21T19:23:52.312Z,13.69
2023-02-21T19:26:54.396Z,14.35
2023-02-21T19:29:56.486Z,14.17
2023-02-21T19:33:01.526Z,13.89
2023-02-21T19:36:04.310Z,14.54
2023-02-21T19:39:07.096Z,14.18
2023-02-21T19:42:09.312Z,14.57
2023-02-21T19:45:11.285Z,14.36
2023-02-21T19:48:13.245Z,14.53
2023-02-21T19:51:16.517Z,14.50
2023-02-21T19:54:19.581Z,14.39
2023-02-21T19:57:21.518Z,14.14
2023-02-21T20:00:26.081Z,14.34
2023-02-21T20:03:27.957Z,14.01
2023-02-21T20:06:34.252Z,13.80
2023-02-21T20:09:36.437Z,13.76
2023-02-21T20:12:38.297Z,14.17
2023-02-21T20:15:40.620Z,14.56
2023-02-21T20:18:46.408Z,14.48
2023-02-21T20:21:48.681Z,14.32
2023-02-21T20:24:50.573Z,14.04
2023-02-21T20:27:52.613Z,13.65
2023-02-21T20:30:54.549Z,13.83
2023-02-21T20:33:56.776Z,13.23
2023-02-21T20:36:58.727Z,13.45
2023-02-21T20:40:02.036Z,13.03
2023-02-21T20:43:04.055Z,13.29
2023-02-21T20:46:06.248Z,13.29
2023-02-21T20:49:08.507Z,13.30
2023-02-21T20:52:10.613Z,13.55
2023-02-21T20:55:16.069Z,13.47
2023-02-21T20:58:18.741Z,13.50
2023-02-21T21:01:20.652Z,12.88
2023-02-21T21:04:26.594Z,13.31
2023-02-21T21:07:29.720Z,13.61
2023-02-21T21:10:31.635Z,14.18
2023-02-21T21:13:33.440Z,13.98
2023-02-21T21:16:35.347Z,14.22
2023-02-21T21:19:37.838Z,13.34
2023-02-21T21:22:40.217Z,13.36
2023-02-21T21:25:42.286Z,13.06
2023-02-21T21:28:44.253Z,13.71
2023-02-21T21:31:50.626Z,14.09
2023-02-21T21:34:54.117Z,13.84
2023-02-21T21:37:56.983Z,12.73
2023-02-21T21:40:58.948Z,13.29
2023-02-21T21:44:00.827Z,12.65
2023-02-21T21:47:02.878Z,12.63
2023-02-21T21:50:05.362Z,12.08
2023-02-21T21:53:07.317Z,12.65
2023-02-21T21:56:11.363Z,12.66
2023-02-21T21:59:15.319Z,12.12
2023-02-21T22:02:17.223Z,11.94
2023-02-21T22:05:21.132Z,12.00
2023-02-21T22:08:23.142Z,11.97
2023-02-21T22:11:25.067Z,11.87
2023-02-21T22:14:27.003Z,11.70
2023-02-21T22:17:28.979Z,12.11
2023-02-21T22:20:36.075Z,11.80
2023-02-21T22:23:38.620Z,11.53
2023-02-21T22:26:40.935Z,11.61
2023-02-21T22:29:42.970Z,11.32
2023-02-21T22:32:45.114Z,11.41
2023-02-21T22:35:47.401Z,10.97
2023-02-21T22:38:49.353Z,11.77
2023-02-21T22:41:51.211Z,11.16
2023-02-21T22:44:53.163Z,11.58
2023-02-21T22:47:57.552Z,11.34
2023-02-21T22:50:59.407Z,11.22
2023-02-21T22:54:01.426Z,11.46
2023-02-21T22:57:04.047Z,11.52
2023-02-21T23:00:19.058Z,11.40
2023-02-21T23:03:20.939Z,11.36
2023-02-21T23:06:23.220Z,11.42
2023-02-21T23:09:26.225Z,11.62
2023-02-21T23:12:28.059Z,11.01
2023-02-21T23:15:29.998Z,10.99
2023-02-21T23:18:32.058Z,11.16
2023-02-21T23:21:34.551Z,11.00
2023-02-21T23:24:36.649Z,12.11
2023-02-21T23:27:39.152Z,11.46
2023-02-21T23:30:41.413Z,11.77
2023-02-21T23:33:43.438Z,11.82
2023-02-21T23:36:45.444Z,11.64
2023-02-21T23:39:47.330Z,11.49
2023-02-21T23:42:49.962Z,11.18
2023-02-21T23:45:52.453Z,11.43
2023-02-21T23:48:54.282Z,11.22
2023-02-21T23:51:56.108Z,11.28
2023-02-21T23:54:57.924Z,11.23
2023-02-21T23:58:03.725Z,11.85
